Time;durP1;ratioP1;P1;durP2;ratioP2;P2;SDS_P1;SDS_P2;PMS_P1;PMS_P2;Temp;Humidity;BMP_temperature;BMP_pressure;BME280_temperature;BME280_humidity;BME280_pressure;Samples;Min_cycle;Max_cycle;Signal;HPM_P1;HPM_P2
2022/11/19 00:01:16;;;;;;;;;;;;;;;24.45;47.32;93404.53;5000046;28;8953;-61
2022/11/19 00:03:45;;;;;;;;;;;;;;;24.43;46.99;93402.34;4983456;28;8693;-61
2022/11/19 00:06:19;;;;;;;;;;;;;;;24.44;47.05;93405.81;5001188;28;8946;-60
2022/11/19 00:08:52;;;;;;;;;;;;;;;24.45;46.77;93410.78;4997888;28;7044;-61
2022/11/19 00:14:09;;;;;;;;;;;;;;;24.45;46.99;93413.53;4987723;28;7371;-61
2022/11/19 00:16:46;;;;;;;;;;;;;;;24.43;46.81;93412.56;5009434;28;7007;-60
2022/11/19 00:19:16;;;;;;;;;;;;;;;24.43;47.06;93412.56;4992657;28;7308;-60
2022/11/19 00:21:45;;;;;;;;;;;;;;;24.44;46.90;93409.31;4992767;28;8672;-60
2022/11/19 00:24:10;;;;;;;;;;;;;;;24.43;47.30;93413.31;4988148;28;7116;-60
2022/11/19 00:26:42;;;;;;;;;;;;;;;24.43;47.33;93413.31;5004670;28;7045;-60
2022/11/19 00:29:23;;;;;;;;;;;;;;;24.43;46.94;93407.81;4992686;28;7330;-61
2022/11/19 00:31:50;;;;;;;;;;;;;;;24.43;47.58;93412.56;4994672;28;7198;-61
2022/11/19 00:34:25;;;;;;;;;;;;;;;24.43;47.20;93410.56;5005742;28;7183;-60
2022/11/19 00:36:52;;;;;;;;;;;;;;;24.42;46.53;93402.88;4993347;28;7140;-61
2022/11/19 00:39:45;;;;;;;;;;;;;;;24.43;46.73;93404.34;5004745;28;7207;-60
2022/11/19 00:42:12;;;;;;;;;;;;;;;24.40;46.48;93406.13;4952167;28;7043;-61
2022/11/19 00:44:49;;;;;;;;;;;;;;;24.42;47.07;93411.13;4934692;28;7075;-61
2022/11/19 00:47:16;;;;;;;;;;;;;;;24.41;47.34;93407.63;4946745;28;7029;-61
2022/11/19 00:49:45;;;;;;;;;;;;;;;24.41;46.50;93401.38;4931056;28;7231;-60
2022/11/19 00:52:11;;;;;;;;;;;;;;;24.41;46.43;93407.63;4937170;28;7244;-61
2022/11/19 00:54:37;;;;;;;;;;;;;;;24.41;47.15;93401.38;4950217;28;7252;-60
2022/11/19 00:57:06;;;;;;;;;;;;;;;24.40;46.86;93403.38;4937205;28;7421;-60
2022/11/19 00:59:38;;;;;;;;;;;;;;;24.40;46.77;93414.38;4933535;29;6979;-61
2022/11/19 01:02:17;;;;;;;;;;;;;;;24.40;46.94;93408.88;4932926;28;9347;-60
2022/11/19 01:04:43;;;;;;;;;;;;;;;24.39;47.30;93401.16;4949218;28;7240;-60
2022/11/19 01:07:11;;;;;;;;;;;;;;;24.38;46.84;93411.41;4928631;28;7338;-60
2022/11/19 01:09:41;;;;;;;;;;;;;;;24.39;47.08;93407.41;4942308;28;7278;-60
2022/11/19 01:13:33;;;;;;;;;;;;;;;24.40;47.56;93413.66;4946146;28;7057;-61
2022/11/19 01:15:34;;;;;;;;;;;;;;;24.37;47.14;93409.19;4946343;28;7423;-60
2022/11/19 01:18:11;;;;;;;;;;;;;;;24.38;47.51;93416.19;4950956;28;8341;-60
2022/11/19 01:20:44;;;;;;;;;;;;;;;24.39;47.00;93418.41;4990274;28;7157;-60
2022/11/19 01:23:14;;;;;;;;;;;;;;;24.40;47.89;93425.34;5009470;28;7290;-61
2022/11/19 01:25:49;;;;;;;;;;;;;;;24.39;46.56;93423.16;4976440;28;7177;-60
2022/11/19 01:28:42;;;;;;;;;;;;;;;24.38;47.12;93427.91;4989800;28;8302;-60
2022/11/19 01:31:21;;;;;;;;;;;;;;;24.39;47.64;93426.63;4932052;28;7177;-60
2022/11/19 01:33:52;;;;;;;;;;;;;;;24.39;47.28;93421.16;4946928;28;7882;-60
2022/11/19 01:36:23;;;;;;;;;;;;;;;24.40;46.88;93425.34;4945803;28;7267;-60
2022/11/19 01:38:50;;;;;;;;;;;;;;;24.39;46.55;93421.16;4936787;28;7701;-60
2022/11/19 01:41:31;;;;;;;;;;;;;;;24.39;47.05;93434.88;4926720;28;7219;-60
2022/11/19 01:44:43;;;;;;;;;;;;;;;24.39;47.39;93434.88;4942305;28;7032;-60
2022/11/19 01:47:21;;;;;;;;;;;;;;;24.38;47.26;93427.91;4951162;28;7069;-60
2022/11/19 01:49:46;;;;;;;;;;;;;;;24.39;46.73;93431.38;4929244;28;9195;-60
2022/11/19 01:52:16;;;;;;;;;;;;;;;24.39;47.39;93442.38;4929438;28;6995;-60
2022/11/19 01:54:49;;;;;;;;;;;;;;;24.39;46.81;93443.13;4945623;28;7281;-60
2022/11/19 01:57:18;;;;;;;;;;;;;;;24.39;47.23;93439.63;4939760;28;9622;-60
2022/11/19 01:59:50;;;;;;;;;;;;;;;24.37;47.18;93440.16;4945467;28;9379;-60
2022/11/19 02:02:21;;;;;;;;;;;;;;;24.36;47.10;93441.41;4929512;28;9032;-60
2022/11/19 02:04:50;;;;;;;;;;;;;;;24.37;46.55;93448.41;4924336;29;9285;-60
2022/11/19 02:07:25;;;;;;;;;;;;;;;24.37;46.63;93447.66;4936506;28;7040;-60
2022/11/19 02:10:05;;;;;;;;;;;;;;;24.37;47.37;93459.41;5003517;28;7042;-61
2022/11/19 02:12:35;;;;;;;;;;;;;;;24.37;46.56;93455.91;4989917;28;8457;-60
2022/11/19 02:15:26;;;;;;;;;;;;;;;24.35;47.33;93450.94;5012343;28;9077;-60
2022/11/19 02:18:01;;;;;;;;;;;;;;;24.36;46.64;93452.41;5022778;28;7263;-61
2022/11/19 02:21:12;;;;;;;;;;;;;;;24.36;47.08;93454.44;5018512;28;8504;-60
2022/11/19 02:24:16;;;;;;;;;;;;;;;24.36;46.98;93454.44;4989154;28;7277;-60
2022/11/19 02:27:00;;;;;;;;;;;;;;;24.35;46.77;93452.94;5019716;28;8750;-60
2022/11/19 02:29:30;;;;;;;;;;;;;;;24.33;46.96;93442.50;5003705;28;7153;-60
2022/11/19 02:32:34;;;;;;;;;;;;;;;24.34;47.34;93443.97;5018262;28;9102;-61
2022/11/19 02:35:19;;;;;;;;;;;;;;;24.34;46.98;93443.97;5006261;28;7358;-61
2022/11/19 02:38:03;;;;;;;;;;;;;;;24.34;47.04;93446.72;5006140;28;8974;-60
2022/11/19 02:41:32;;;;;;;;;;;;;;;24.35;46.49;93444.72;4994085;28;7227;-60
2022/11/19 02:46:52;;;;;;;;;;;;;;;24.37;46.59;93439.41;4963333;28;6994;-60
2022/11/19 02:49:24;;;;;;;;;;;;;;;24.35;46.81;93439.97;4959933;28;7308;-60
2022/11/19 02:51:53;;;;;;;;;;;;;;;24.35;46.94;93445.44;4954328;28;7636;-60
2022/11/19 02:54:22;;;;;;;;;;;;;;;24.34;46.71;93437.72;4943748;28;7094;-60
2022/11/19 02:56:54;;;;;;;;;;;;;;;24.34;47.32;93446.72;4962617;28;7042;-61
2022/11/19 03:05:32;;;;;;;;;;;;;;;24.34;46.55;93443.97;4965647;28;9185;-60
2022/11/19 03:07:59;;;;;;;;;;;;;;;24.34;47.16;93443.97;4961046;28;7112;-60
2022/11/19 03:10:47;;;;;;;;;;;;;;;24.34;47.00;93438.47;4968565;28;7617;-60
2022/11/19 03:16:41;;;;;;;;;;;;;;;24.33;46.43;93437.00;4991235;28;9703;-62
2022/11/19 03:20:02;;;;;;;;;;;;;;;24.34;47.33;93441.22;4983506;28;7025;-62
2022/11/19 03:22:52;;;;;;;;;;;;;;;24.32;46.95;93438.25;4951415;29;7026;-59
2022/11/19 03:26:07;;;;;;;;;;;;;;;24.33;47.15;93434.25;4949795;28;9727;-59
2022/11/19 03:28:52;;;;;;;;;;;;;;;24.32;47.13;93440.25;4856639;29;8416;-59
2022/11/19 03:31:30;;;;;;;;;;;;;;;24.32;46.86;93432.75;4856668;29;9883;-59
2022/11/19 03:34:14;;;;;;;;;;;;;;;24.34;46.69;93437.72;4856235;29;7039;-61
2022/11/19 03:36:44;;;;;;;;;;;;;;;24.32;46.84;93429.25;4856230;29;7209;-61
2022/11/19 03:39:17;;;;;;;;;;;;;;;24.32;46.95;93432.75;4854576;29;7642;-61
2022/11/19 03:41:51;;;;;;;;;;;;;;;24.32;47.09;93432.75;4844949;29;7197;-61
2022/11/19 03:44:35;;;;;;;;;;;;;;;24.33;47.37;93437.00;4860266;29;7103;-61
2022/11/19 03:47:36;;;;;;;;;;;;;;;24.33;46.89;93431.50;4857950;29;7298;-61
2022/11/19 03:50:15;;;;;;;;;;;;;;;24.34;47.34;93437.72;4857879;29;8557;-61
2022/11/19 03:52:42;;;;;;;;;;;;;;;24.33;46.64;93437.00;4859072;29;8215;-61
2022/11/19 03:55:09;;;;;;;;;;;;;;;24.35;47.25;93439.22;4845338;29;7022;-62
2022/11/19 03:57:35;;;;;;;;;;;;;;;24.37;46.94;93440.16;4866013;29;8716;-61
2022/11/19 04:00:06;;;;;;;;;;;;;;;24.39;46.44;93445.13;4878700;29;9260;-61
2022/11/19 04:02:46;;;;;;;;;;;;;;;24.38;46.99;93441.63;4897843;29;7134;-62
2022/11/19 04:05:28;;;;;;;;;;;;;;;24.38;46.67;93444.38;4920814;28;8639;-61
2022/11/19 04:08:01;;;;;;;;;;;;;;;24.38;46.46;93441.63;5004770;28;9278;-61
2022/11/19 04:10:27;;;;;;;;;;;;;;;24.38;47.19;93444.38;4984904;28;7348;-61
2022/11/19 04:12:58;;;;;;;;;;;;;;;24.38;47.05;93438.88;5009474;28;7372;-62
2022/11/19 04:15:33;;;;;;;;;;;;;;;24.38;47.05;93438.88;4986766;28;7029;-61
2022/11/19 04:18:10;;;;;;;;;;;;;;;24.38;46.48;93438.88;4992347;28;7026;-61
2022/11/19 04:20:45;;;;;;;;;;;;;;;24.36;46.99;93435.94;4989871;28;7012;-61
2022/11/19 04:23:14;;;;;;;;;;;;;;;24.36;47.15;93438.69;5004552;28;9654;-62
2022/11/19 04:25:58;;;;;;;;;;;;;;;24.37;46.86;93434.69;5004527;28;7054;-61
2022/11/19 04:28:31;;;;;;;;;;;;;;;24.38;47.05;93438.88;5005909;28;7230;-61
2022/11/19 04:31:11;;;;;;;;;;;;;;;24.38;46.53;93438.88;4994695;28;7461;-61
2022/11/19 04:33:43;;;;;;;;;;;;;;;24.38;46.34;93438.88;4986026;28;7093;-61
2022/11/19 04:36:16;;;;;;;;;;;;;;;24.39;46.30;93439.63;4992299;28;7069;-62
2022/11/19 04:38:48;;;;;;;;;;;;;;;24.37;46.57;93440.16;5000778;28;7267;-61
2022/11/19 04:41:14;;;;;;;;;;;;;;;24.38;46.67;93438.16;4993369;28;8018;-61
2022/11/19 04:43:43;;;;;;;;;;;;;;;24.35;46.82;93439.97;4985506;28;7122;-61
2022/11/19 04:46:15;;;;;;;;;;;;;;;24.36;46.22;93446.91;4992922;28;7835;-62
2022/11/19 04:48:50;;;;;;;;;;;;;;;24.37;46.81;93448.41;5008876;28;7491;-61
2022/11/19 04:51:16;;;;;;;;;;;;;;;24.38;46.40;93438.88;4991689;28;7050;-61
2022/11/19 04:53:44;;;;;;;;;;;;;;;24.38;46.81;93438.16;4990828;28;7509;-61
2022/11/19 04:56:10;;;;;;;;;;;;;;;24.35;46.67;93437.22;4990001;28;9015;-61
2022/11/19 04:58:36;;;;;;;;;;;;;;;24.36;46.68;93435.22;4996246;28;7167;-61
2022/11/19 05:01:03;;;;;;;;;;;;;;;24.38;46.96;93443.66;4985580;28;6876;-62
2022/11/19 05:03:34;;;;;;;;;;;;;;;24.36;46.92;93443.44;4987061;28;6875;-62
2022/11/19 05:06:00;;;;;;;;;;;;;;;24.34;47.07;93443.97;4976526;28;7389;-61
2022/11/19 05:08:30;;;;;;;;;;;;;;;24.35;47.04;93455.69;4986100;28;7204;-61
2022/11/19 05:11:02;;;;;;;;;;;;;;;24.36;46.35;93444.16;5004264;28;7031;-61
2022/11/19 05:13:43;;;;;;;;;;;;;;;24.35;46.56;93442.69;5015889;28;7288;-62
2022/11/19 05:16:09;;;;;;;;;;;;;;;24.37;46.99;93442.16;5002253;28;8488;-61
2022/11/19 05:18:38;;;;;;;;;;;;;;;24.36;46.98;93441.41;4988351;28;8005;-62
2022/11/19 05:21:05;;;;;;;;;;;;;;;24.35;46.77;93437.22;4991788;28;7133;-62
2022/11/19 05:23:41;;;;;;;;;;;;;;;24.34;47.05;93435.72;4989827;28;7280;-61
2022/11/19 05:26:07;;;;;;;;;;;;;;;24.37;46.31;93442.16;5007276;28;7538;-61
2022/11/19 05:28:34;;;;;;;;;;;;;;;24.34;46.62;93443.97;5005780;28;7495;-62
2022/11/19 05:31:15;;;;;;;;;;;;;;;24.36;46.25;93444.16;4987879;28;7072;-61
2022/11/19 05:33:57;;;;;;;;;;;;;;;24.35;46.63;93445.44;4988635;28;7039;-62
2022/11/19 05:36:26;;;;;;;;;;;;;;;24.36;46.54;93441.41;4992429;28;7313;-61
2022/11/19 05:39:01;;;;;;;;;;;;;;;24.36;46.09;93441.41;4985681;28;10641;-61
2022/11/19 05:41:30;;;;;;;;;;;;;;;24.37;46.73;93453.91;4982314;28;7624;-61
2022/11/19 05:44:27;;;;;;;;;;;;;;;24.39;47.02;93445.88;4988515;28;7029;-61
2022/11/19 05:46:58;;;;;;;;;;;;;;;24.38;47.01;93441.63;5022789;28;9054;-61
2022/11/19 05:49:24;;;;;;;;;;;;;;;24.38;47.13;93443.66;4991553;28;10831;-61
2022/11/19 05:51:50;;;;;;;;;;;;;;;24.35;46.59;93448.19;4990775;28;7016;-61
2022/11/19 05:54:16;;;;;;;;;;;;;;;24.37;46.99;93450.41;5014201;28;8299;-61
2022/11/19 05:56:42;;;;;;;;;;;;;;;24.35;46.66;93450.94;4998530;28;7988;-61
2022/11/19 05:59:12;;;;;;;;;;;;;;;24.34;46.71;93449.44;4991026;28;7211;-61
2022/11/19 06:01:48;;;;;;;;;;;;;;;24.36;46.79;93448.94;4998371;28;7344;-62
2022/11/19 06:04:15;;;;;;;;;;;;;;;24.34;46.99;93446.72;4979477;28;7281;-61
2022/11/19 06:06:43;;;;;;;;;;;;;;;24.35;46.46;93450.94;5005640;28;7633;-61
2022/11/19 06:09:11;;;;;;;;;;;;;;;24.37;46.49;93442.16;4985753;28;9737;-61
2022/11/19 06:11:49;;;;;;;;;;;;;;;24.36;47.21;93451.69;5007856;28;6973;-61
2022/11/19 06:14:27;;;;;;;;;;;;;;;24.34;46.61;93446.72;4990433;28;7307;-61
2022/11/19 06:16:58;;;;;;;;;;;;;;;24.34;46.67;93452.19;4982224;28;7015;-61
2022/11/19 06:19:30;;;;;;;;;;;;;;;24.35;46.75;93448.19;4999944;28;7271;-61
2022/11/19 06:21:59;;;;;;;;;;;;;;;24.36;47.02;93457.19;5022783;28;8849;-61
2022/11/19 06:24:35;;;;;;;;;;;;;;;24.36;46.77;93463.41;4989833;28;7023;-62
2022/11/19 06:27:10;;;;;;;;;;;;;;;24.35;46.89;93459.19;4987887;28;8538;-61
2022/11/19 06:29:36;;;;;;;;;;;;;;;24.36;46.01;93460.66;5010937;28;7121;-61
2022/11/19 06:32:04;;;;;;;;;;;;;;;24.35;46.79;93456.44;5014981;28;7846;-62
2022/11/19 06:34:29;;;;;;;;;;;;;;;24.37;46.69;93461.41;5009505;28;8955;-61
2022/11/19 06:36:58;;;;;;;;;;;;;;;24.34;47.16;93476.94;5009444;28;8626;-61
2022/11/19 06:39:28;;;;;;;;;;;;;;;24.34;46.58;93482.44;4996788;28;7325;-61
2022/11/19 06:42:34;;;;;;;;;;;;;;;24.33;47.08;93486.47;4988876;28;8010;-61
2022/11/19 06:45:10;;;;;;;;;;;;;;;24.32;47.05;93484.22;5011732;28;7865;-61
2022/11/19 06:47:39;;;;;;;;;;;;;;;24.35;46.92;93488.69;4949325;28;7075;-62
2022/11/19 06:50:07;;;;;;;;;;;;;;;24.34;46.68;93493.44;4929526;28;7267;-61
2022/11/19 06:52:32;;;;;;;;;;;;;;;24.34;46.40;93485.19;4934266;28;8934;-61
2022/11/19 06:55:01;;;;;;;;;;;;;;;24.36;47.08;93487.41;4947288;28;7018;-61
2022/11/19 06:57:38;;;;;;;;;;;;;;;24.36;46.86;93501.88;4933721;28;7037;-61
2022/11/19 07:00:05;;;;;;;;;;;;;;;24.37;47.31;93503.38;4947174;28;7211;-61
2022/11/19 07:02:32;;;;;;;;;;;;;;;24.36;46.57;93507.38;4934557;29;8780;-62
2022/11/19 07:05:16;;;;;;;;;;;;;;;24.36;46.76;93512.16;4950631;28;7060;-59
2022/11/19 07:07:47;;;;;;;;;;;;;;;24.36;47.24;93512.88;4935114;29;7019;-61
2022/11/19 07:10:13;;;;;;;;;;;;;;;24.37;47.06;93517.13;4949973;29;8511;-61
2022/11/19 07:12:47;;;;;;;;;;;;;;;24.39;47.30;93525.59;4946573;29;7029;-61
2022/11/19 07:15:22;;;;;;;;;;;;;;;24.39;47.38;93524.84;4927252;28;7027;-61
2022/11/19 07:18:01;;;;;;;;;;;;;;;24.40;48.04;93524.31;4953998;28;7039;-61
2022/11/19 07:20:28;;;;;;;;;;;;;;;24.40;48.09;93524.31;4939026;28;9052;-61
2022/11/19 07:22:54;;;;;;;;;;;;;;;24.42;47.49;93532.78;4963287;28;7130;-61
2022/11/19 07:25:22;;;;;;;;;;;;;;;24.44;47.88;93541.25;4986242;28;7069;-61
2022/11/19 07:27:48;;;;;;;;;;;;;;;24.48;47.69;93536.19;4986679;28;7260;-62
2022/11/19 07:30:31;;;;;;;;;;;;;;;24.50;47.24;93539.16;5011310;28;7046;-61
2022/11/19 07:33:27;;;;;;;;;;;;;;;24.51;47.89;93535.13;4995610;28;11619;-61
2022/11/19 07:36:09;;;;;;;;;;;;;;;24.56;47.16;93544.56;4985345;28;7206;-61
2022/11/19 07:38:41;;;;;;;;;;;;;;;24.52;47.47;93542.13;5004826;28;8536;-61
2022/11/19 07:44:13;;;;;;;;;;;;;;;24.47;46.54;93548.44;4984589;28;7258;-61
2022/11/19 07:47:06;;;;;;;;;;;;;;;24.47;46.23;93551.19;4990518;28;7257;-61
2022/11/19 07:49:32;;;;;;;;;;;;;;;24.49;46.14;93554.16;4924107;29;8822;-61
2022/11/19 07:51:58;;;;;;;;;;;;;;;24.48;45.90;93558.19;4935163;29;8257;-61
2022/11/19 07:54:24;;;;;;;;;;;;;;;24.48;45.24;93557.44;4935814;29;7010;-61
2022/11/19 07:56:54;;;;;;;;;;;;;;;24.48;45.43;93552.69;4935269;29;7200;-61
2022/11/19 07:59:31;;;;;;;;;;;;;;;24.48;45.70;93557.44;4919757;29;7003;-61
2022/11/19 08:02:10;;;;;;;;;;;;;;;24.47;45.81;93559.44;4930654;29;8306;-61
2022/11/19 08:05:08;;;;;;;;;;;;;;;24.46;45.45;93560.72;4919943;29;7268;-61
2022/11/19 08:07:36;;;;;;;;;;;;;;;24.47;45.98;93567.69;4888883;29;7315;-61
2022/11/19 08:10:12;;;;;;;;;;;;;;;24.55;45.93;93568.56;4881228;29;9116;-61
2022/11/19 08:12:38;;;;;;;;;;;;;;;24.53;46.78;93565.59;4891693;29;7599;-61
2022/11/19 08:15:16;;;;;;;;;;;;;;;24.56;46.77;93564.53;4894726;29;9368;-61
2022/11/19 08:18:12;;;;;;;;;;;;;;;24.60;47.40;93570.47;4884523;29;7016;-61
2022/11/19 08:20:47;;;;;;;;;;;;;;;24.65;47.09;93572.41;4889885;29;9206;-61
2022/11/19 08:23:15;;;;;;;;;;;;;;;24.67;47.69;93564.38;4894902;29;7016;-61
2022/11/19 08:25:43;;;;;;;;;;;;;;;24.72;47.03;93565.56;4889708;29;8996;-61
2022/11/19 08:28:41;;;;;;;;;;;;;;;24.70;46.07;93568.84;4920259;29;7021;-61
2022/11/19 08:31:17;;;;;;;;;;;;;;;24.63;46.64;93563.94;4895505;29;7027;-61
2022/11/19 08:34:13;;;;;;;;;;;;;;;24.63;46.56;93568.69;4897560;29;7042;-61
2022/11/19 08:36:49;;;;;;;;;;;;;;;24.61;47.04;93576.72;4878693;29;9368;-61
2022/11/19 08:39:19;;;;;;;;;;;;;;;24.60;47.49;93580.72;4878085;29;7452;-60
2022/11/19 08:44:30;;;;;;;;;;;;;;;24.57;47.63;93576.28;4890313;29;7442;-61
2022/11/19 08:46:57;;;;;;;;;;;;;;;24.56;47.92;93578.28;4897290;29;9050;-61
2022/11/19 08:49:25;;;;;;;;;;;;;;;24.54;47.86;93578.06;4896725;29;7342;-61
2022/11/19 08:51:56;;;;;;;;;;;;;;;24.56;47.20;93585.78;4888518;29;7137;-61
2022/11/19 08:54:22;;;;;;;;;;;;;;;24.56;48.09;93581.03;4893207;29;7258;-61
2022/11/19 08:56:49;;;;;;;;;;;;;;;24.55;48.32;93585.06;4885507;29;8610;-61
2022/11/19 08:59:17;;;;;;;;;;;;;;;24.55;48.14;93589.81;4907812;29;9477;-61
2022/11/19 09:01:43;;;;;;;;;;;;;;;24.54;47.41;93589.06;4910375;29;7125;-61
2022/11/19 09:04:12;;;;;;;;;;;;;;;24.55;48.10;93589.81;4893056;29;7196;-61
2022/11/19 09:06:47;;;;;;;;;;;;;;;24.55;47.62;93595.31;4911606;29;7038;-61
2022/11/19 09:09:14;;;;;;;;;;;;;;;24.56;48.35;93592.03;4911490;29;9092;-61
2022/11/19 09:11:41;;;;;;;;;;;;;;;24.56;48.18;93592.03;4927031;28;7747;-61
2022/11/19 09:14:07;;;;;;;;;;;;;;;24.56;48.25;93602.28;4997580;28;7284;-61
2022/11/19 09:16:33;;;;;;;;;;;;;;;24.56;47.82;93588.53;4989793;28;7471;-61
2022/11/19 09:19:01;;;;;;;;;;;;;;;24.55;48.24;93598.06;4987528;28;7129;-61
2022/11/19 09:21:27;;;;;;;;;;;;;;;24.56;48.08;93591.28;4985955;28;8320;-61
2022/11/19 09:23:56;;;;;;;;;;;;;;;24.54;48.41;93594.56;4993896;28;7408;-61
2022/11/19 09:26:24;;;;;;;;;;;;;;;24.58;48.04;93597.00;4986569;28;7332;-61
2022/11/19 09:28:50;;;;;;;;;;;;;;;24.58;48.39;93600.50;4988741;28;7833;-61
2022/11/19 09:31:28;;;;;;;;;;;;;;;24.57;48.31;93601.03;4991022;28;9052;-61
2022/11/19 09:33:56;;;;;;;;;;;;;;;24.59;48.47;93604.00;4979268;28;9098;-61
2022/11/19 09:36:23;;;;;;;;;;;;;;;24.58;48.13;93606.00;4990883;28;7546;-61
2022/11/19 09:38:49;;;;;;;;;;;;;;;24.59;47.68;93601.25;5002672;28;7043;-61
2022/11/19 09:41:53;;;;;;;;;;;;;;;24.61;47.85;93602.22;4981583;28;7197;-61
2022/11/19 09:44:42;;;;;;;;;;;;;;;24.60;47.85;93603.47;4992909;28;7398;-61
2022/11/19 09:47:57;;;;;;;;;;;;;;;24.62;47.85;93600.94;5002199;28;7905;-61
2022/11/19 09:50:32;;;;;;;;;;;;;;;24.70;47.99;93603.84;4966087;28;8415;-61
2022/11/19 09:53:20;;;;;;;;;;;;;;;24.76;48.28;93598.25;4968500;28;8587;-61
2022/11/19 09:55:52;;;;;;;;;;;;;;;24.78;47.25;93590.22;4971477;28;7272;-61
2022/11/19 09:58:33;;;;;;;;;;;;;;;24.79;47.59;93591.72;4970742;28;9455;-61
2022/11/19 10:01:06;;;;;;;;;;;;;;;24.76;47.50;93587.25;4942509;28;7265;-61
2022/11/19 10:03:49;;;;;;;;;;;;;;;24.75;47.55;93583.03;4954442;28;7014;-61
2022/11/19 10:06:30;;;;;;;;;;;;;;;24.71;47.58;93595.06;4971045;28;7192;-61
2022/11/19 10:09:27;;;;;;;;;;;;;;;24.75;47.42;93594.03;4971957;28;7152;-61
2022/11/19 10:12:30;;;;;;;;;;;;;;;24.73;47.21;93589.03;4971973;28;7076;-61
2022/11/19 10:15:05;;;;;;;;;;;;;;;24.73;47.68;93591.78;4971287;28;7986;-61
2022/11/19 10:17:58;;;;;;;;;;;;;;;24.73;46.95;93589.78;4970014;28;8013;-60
2022/11/19 10:20:44;;;;;;;;;;;;;;;24.73;47.89;93578.78;4943939;28;8219;-61
2022/11/19 10:23:34;;;;;;;;;;;;;;;24.76;48.09;93587.25;4972062;28;9006;-61
2022/11/19 10:26:15;;;;;;;;;;;;;;;24.77;47.28;93580.50;4974476;28;9050;-61
2022/11/19 10:28:51;;;;;;;;;;;;;;;24.77;47.32;93575.00;4991442;28;7038;-60
2022/11/19 10:31:37;;;;;;;;;;;;;;;24.76;46.69;93579.75;4982975;28;7267;-61
2022/11/19 10:34:09;;;;;;;;;;;;;;;24.77;46.94;93573.00;4989842;28;7205;-61
2022/11/19 10:36:48;;;;;;;;;;;;;;;24.77;47.53;93566.75;4994994;28;9070;-61
2022/11/19 10:39:23;;;;;;;;;;;;;;;24.79;47.73;93575.22;4980224;28;7026;-61
2022/11/19 10:42:25;;;;;;;;;;;;;;;24.80;46.81;93576.69;4991599;28;7261;-61
2022/11/19 10:45:19;;;;;;;;;;;;;;;24.84;47.32;93568.91;5005374;28;7052;-61
2022/11/19 10:48:06;;;;;;;;;;;;;;;24.89;46.70;93571.53;4998050;28;7328;-60
2022/11/19 10:50:32;;;;;;;;;;;;;;;24.90;46.67;93570.28;4989121;28;7925;-61
2022/11/19 10:53:35;;;;;;;;;;;;;;;24.92;46.85;93564.25;4979022;28;9054;-61
2022/11/19 10:56:11;;;;;;;;;;;;;;;24.93;46.95;93558.22;4976261;28;7166;-61
2022/11/19 10:59:08;;;;;;;;;;;;;;;24.96;47.11;93559.94;4999169;28;7094;-61
2022/11/19 11:01:47;;;;;;;;;;;;;;;24.99;46.66;93558.84;4986256;28;7035;-61
2022/11/19 11:04:24;;;;;;;;;;;;;;;25.03;46.96;93564.06;4983692;28;8232;-61
2022/11/19 11:06:57;;;;;;;;;;;;;;;25.00;48.29;93559.59;4997347;28;7243;-61
2022/11/19 11:09:43;;;;;;;;;;;;;;;24.94;48.20;93561.72;4995513;28;7817;-61
2022/11/19 11:15:25;;;;;;;;;;;;;;;24.95;47.84;93555.69;4974969;28;9130;-61
2022/11/19 11:18:11;;;;;;;;;;;;;;;24.93;48.28;93557.47;5004108;28;7303;-61
2022/11/19 11:20:56;;;;;;;;;;;;;;;24.92;48.41;93556.00;4981200;28;7349;-61
2022/11/19 11:23:26;;;;;;;;;;;;;;;24.94;48.38;93559.72;4991562;28;7196;-61
2022/11/19 11:26:03;;;;;;;;;;;;;;;24.96;48.52;93553.69;4990684;28;7152;-61
2022/11/19 11:28:29;;;;;;;;;;;;;;;24.95;48.28;93552.19;4991788;28;7026;-61
2022/11/19 11:31:10;;;;;;;;;;;;;;;24.99;48.08;93555.38;4996036;28;7049;-61
2022/11/19 11:33:39;;;;;;;;;;;;;;;25.02;48.41;93555.06;4986086;28;7330;-61
2022/11/19 11:36:23;;;;;;;;;;;;;;;24.99;48.12;93560.88;4994972;28;7269;-61
2022/11/19 11:39:25;;;;;;;;;;;;;;;24.98;48.12;93553.91;4980802;28;8467;-61
2022/11/19 11:42:11;;;;;;;;;;;;;;;24.96;48.11;93550.94;4978539;28;7407;-61
2022/11/19 11:44:56;;;;;;;;;;;;;;;24.94;48.15;93553.47;4992828;28;7128;-61
2022/11/19 11:47:41;;;;;;;;;;;;;;;24.94;47.87;93539.72;4991289;28;7176;-61
2022/11/19 11:50:18;;;;;;;;;;;;;;;24.92;48.44;93550.50;4986010;28;7053;-62
2022/11/19 11:52:50;;;;;;;;;;;;;;;24.95;47.98;93543.94;4988042;28;9312;-61
2022/11/19 11:55:22;;;;;;;;;;;;;;;24.97;47.82;93542.13;4979600;28;9123;-61
2022/11/19 11:57:56;;;;;;;;;;;;;;;24.98;48.29;93532.63;4980168;28;7032;-61
2022/11/19 12:00:33;;;;;;;;;;;;;;;24.99;47.60;93538.88;4990616;28;7081;-61
2022/11/19 12:03:06;;;;;;;;;;;;;;;24.98;47.86;93531.88;5006715;28;7322;-61
2022/11/19 12:06:01;;;;;;;;;;;;;;;24.97;47.06;93522.88;5003550;28;7085;-61
2022/11/19 12:09:07;;;;;;;;;;;;;;;25.02;48.05;93530.31;4996548;28;7344;-61
2022/11/19 12:11:56;;;;;;;;;;;;;;;25.01;47.72;93526.06;5005655;28;7026;-61
2022/11/19 12:14:35;;;;;;;;;;;;;;;25.05;46.56;93534.00;4989738;28;7087;-61
2022/11/19 12:17:29;;;;;;;;;;;;;;;25.08;46.85;93530.19;4975279;28;7612;-61
2022/11/19 12:20:40;;;;;;;;;;;;;;;25.12;46.52;93533.41;4986230;28;7039;-61
2022/11/19 12:23:13;;;;;;;;;;;;;;;25.14;47.34;93525.34;5000537;28;7052;-61
2022/11/19 12:29:22;;;;;;;;;;;;;;;25.13;47.67;93526.59;4984965;28;8170;-61
2022/11/19 12:31:53;;;;;;;;;;;;;;;25.14;47.76;93528.09;5000803;28;9022;-61
2022/11/19 12:34:46;;;;;;;;;;;;;;;25.17;47.14;93538.03;5010091;28;9645;-61
2022/11/19 12:37:24;;;;;;;;;;;;;;;25.18;47.88;93534.03;4978966;28;8480;-61
2022/11/19 12:40:22;;;;;;;;;;;;;;;25.14;46.98;93528.81;4990858;28;7273;-61
2022/11/19 12:43:25;;;;;;;;;;;;;;;25.16;47.16;93536.56;4992757;28;9024;-62
2022/11/19 12:46:10;;;;;;;;;;;;;;;25.19;46.85;93535.50;4979639;28;7267;-61
2022/11/19 12:48:54;;;;;;;;;;;;;;;25.21;47.24;93525.44;4994729;28;7211;-61
2022/11/19 12:51:57;;;;;;;;;;;;;;;25.31;47.31;93526.53;4979341;28;7065;-61
2022/11/19 12:54:49;;;;;;;;;;;;;;;25.32;47.04;93521.72;4977644;28;7317;-61
2022/11/19 12:57:38;;;;;;;;;;;;;;;25.31;46.85;93531.28;4987069;28;8323;-61
2022/11/19 13:00:13;;;;;;;;;;;;;;;25.29;46.94;93522.81;4982575;28;9471;-61
2022/11/19 13:03:00;;;;;;;;;;;;;;;25.31;47.28;93523.03;4987058;28;7010;-61
2022/11/19 13:05:53;;;;;;;;;;;;;;;25.32;46.86;93524.50;4985500;28;9446;-61
2022/11/19 13:08:31;;;;;;;;;;;;;;;25.34;46.87;93524.69;4988898;28;9221;-61
2022/11/19 13:11:35;;;;;;;;;;;;;;;25.38;46.19;93522.41;4989482;28;7209;-61
2022/11/19 13:14:49;;;;;;;;;;;;;;;25.37;47.07;93529.16;4978917;28;7596;-61
2022/11/19 13:17:40;;;;;;;;;;;;;;;25.34;46.76;93521.94;4950982;28;7156;-61
2022/11/19 13:20:39;;;;;;;;;;;;;;;25.36;47.17;93527.66;4922360;28;9115;-61
2022/11/19 13:23:06;;;;;;;;;;;;;;;25.35;46.32;93528.94;4893078;29;7181;-61
2022/11/19 13:25:49;;;;;;;;;;;;;;;25.35;46.31;93528.94;4911160;29;7650;-61
2022/11/19 13:28:29;;;;;;;;;;;;;;;25.35;46.47;93534.44;4889991;29;7250;-61
2022/11/19 13:31:06;;;;;;;;;;;;;;;25.34;46.93;93532.97;4896410;29;8865;-61
2022/11/19 13:33:52;;;;;;;;;;;;;;;25.34;46.89;93530.94;4911236;29;7273;-61
2022/11/19 13:36:36;;;;;;;;;;;;;;;25.33;47.39;93528.75;4908433;29;6971;-61
2022/11/19 13:39:17;;;;;;;;;;;;;;;25.34;47.18;93536.47;4893288;29;9432;-61
2022/11/19 13:44:46;;;;;;;;;;;;;;;25.35;46.04;93539.97;4910867;29;7270;-61
2022/11/19 13:47:22;;;;;;;;;;;;;;;25.34;46.96;93536.47;4906114;29;7219;-61
2022/11/19 13:49:58;;;;;;;;;;;;;;;25.34;46.13;93536.47;4898870;29;7375;-61
2022/11/19 13:52:34;;;;;;;;;;;;;;;25.33;46.45;93535.00;4927305;29;7406;-61
2022/11/19 13:55:21;;;;;;;;;;;;;;;25.34;45.77;93530.94;4929610;29;6867;-61
2022/11/19 13:58:08;;;;;;;;;;;;;;;25.35;46.19;93537.94;4930876;28;7354;-61
2022/11/19 14:01:00;;;;;;;;;;;;;;;25.34;45.99;93519.94;4983927;28;8621;-61
2022/11/19 14:04:04;;;;;;;;;;;;;;;25.34;45.71;93536.47;4987725;28;7327;-61
2022/11/19 14:06:48;;;;;;;;;;;;;;;25.35;45.90;93534.44;4981741;28;7029;-61
2022/11/19 14:09:24;;;;;;;;;;;;;;;25.34;46.78;93536.47;4995813;28;9314;-61
2022/11/19 14:12:11;;;;;;;;;;;;;;;25.33;46.54;93537.75;4978157;28;7264;-61
2022/11/19 14:27:32;;;;;;;;;;;;;;;25.26;46.00;93540.38;4988668;28;9395;-61
2022/11/19 14:30:13;;;;;;;;;;;;;;;25.22;46.01;93540.69;4972124;28;7523;-61
2022/11/19 14:32:52;;;;;;;;;;;;;;;25.23;46.35;93541.41;4972692;28;8990;-61
2022/11/19 14:35:56;;;;;;;;;;;;;;;25.24;46.41;93543.66;4989061;28;7603;-61